Time;durP1;ratioP1;P1;durP2;ratioP2;P2;SDS_P1;SDS_P2;PMS_P1;PMS_P2;Temp;Humidity;BMP_temperature;BMP_pressure;BME280_temperature;BME280_humidity;BME280_pressure;Samples;Min_cycle;Max_cycle;Signal;HPM_P1;HPM_P2
2022/02/17 00:01:51;;;;;;;8.77;2.97;;;;;;;12.05;100.00;99182.28;4994101;28;20049;-44
2022/02/17 00:04:19;;;;;;;13.27;3.10;;;;;;;11.96;100.00;99189.69;4993372;28;20113;-45
2022/02/17 00:06:46;;;;;;;16.45;4.18;;;;;;;11.91;100.00;99220.66;4996524;28;20050;-45
2022/02/17 00:09:14;;;;;;;11.43;3.40;;;;;;;11.77;100.00;99237.09;4998726;28;20053;-45
2022/02/17 00:11:42;;;;;;;9.75;2.72;;;;;;;11.65;100.00;99198.69;4999536;28;20129;-47
2022/02/17 00:14:10;;;;;;;9.63;3.10;;;;;;;11.61;100.00;99164.97;4996398;28;20142;-44
2022/02/17 00:16:38;;;;;;;9.40;3.20;;;;;;;11.65;100.00;99169.47;4997064;28;20065;-45
2022/02/17 00:19:06;;;;;;;11.38;3.50;;;;;;;11.71;100.00;99189.22;4995980;28;20043;-45
2022/02/17 00:21:33;;;;;;;14.43;3.53;;;;;;;11.75;100.00;99192.94;5015565;28;20571;-44
2022/02/17 00:24:01;;;;;;;9.63;2.88;;;;;;;11.80;100.00;99186.53;5016934;28;20396;-44
2022/02/17 00:26:29;;;;;;;12.45;3.58;;;;;;;11.83;100.00;99174.97;5016841;28;20056;-44
2022/02/17 00:28:59;;;;;;;9.15;3.25;;;;;;;11.86;100.00;99180.63;5016337;28;20543;-44
2022/02/17 00:31:27;;;;;;;11.85;3.28;;;;;;;11.88;100.00;99170.22;5014758;28;20042;-45
2022/02/17 00:33:54;;;;;;;11.65;3.22;;;;;;;11.96;100.00;99192.41;5016698;28;20511;-44
2022/02/17 00:36:22;;;;;;;12.27;3.60;;;;;;;11.91;100.00;99226.91;4999071;28;20046;-46
2022/02/17 00:38:50;;;;;;;11.27;3.75;;;;;;;11.84;100.00;99248.34;5016641;28;20128;-46
2022/02/17 00:41:19;;;;;;;10.07;3.22;;;;;;;11.69;100.00;99205.94;4996297;28;20110;-43
2022/02/17 00:43:47;;;;;;;11.32;3.13;;;;;;;11.52;100.00;99212.13;4996935;28;20457;-44
2022/02/17 00:46:14;;;;;;;15.25;4.15;;;;;;;11.41;100.00;99218.94;4996852;28;20050;-46
2022/02/17 00:48:42;;;;;;;14.70;3.63;;;;;;;11.43;100.00;99213.19;4995327;28;20584;-46
2022/02/17 00:51:11;;;;;;;9.73;3.42;;;;;;;11.44;100.00;99201.97;4997601;28;20050;-44
2022/02/17 00:53:38;;;;;;;13.13;3.22;;;;;;;11.35;100.00;99212.00;4996574;28;20039;-45
2022/02/17 00:56:07;;;;;;;11.80;3.83;;;;;;;11.34;100.00;99202.22;4996593;28;20098;-44
2022/02/17 00:58:34;;;;;;;12.68;3.80;;;;;;;11.36;100.00;99199.22;4995101;28;20495;-44
2022/02/17 01:01:04;;;;;;;9.60;3.35;;;;;;;11.36;100.00;99202.72;5013655;28;20046;-45
2022/02/17 01:03:32;;;;;;;13.10;3.75;;;;;;;11.41;100.00;99208.03;5014852;28;20088;-44
2022/02/17 01:06:01;;;;;;;19.67;4.70;;;;;;;11.44;100.00;99187.53;5014814;28;20120;-44
2022/02/17 01:08:28;;;;;;;18.10;5.03;;;;;;;11.43;100.00;99192.19;5015856;28;20462;-47
2022/02/17 01:10:58;;;;;;;13.90;4.15;;;;;;;11.54;100.00;99208.25;5000082;28;20528;-44
2022/02/17 01:13:28;;;;;;;17.80;4.43;;;;;;;11.58;99.53;99220.16;4995228;28;20052;-45
2022/02/17 01:15:56;;;;;;;15.82;4.75;;;;;;;11.60;98.32;99231.56;4994725;28;20077;-45
2022/02/17 01:18:24;;;;;;;18.83;4.78;;;;;;;11.60;97.22;99218.72;4994645;28;20042;-45
2022/02/17 01:20:52;;;;;;;17.52;4.55;;;;;;;11.61;94.40;99238.63;4970987;28;20045;-44
2022/02/17 01:23:19;;;;;;;15.15;4.35;;;;;;;11.61;94.80;99261.25;5014198;28;20090;-44
2022/02/17 01:25:47;;;;;;;16.95;4.68;;;;;;;11.63;92.42;99241.84;5014268;28;20575;-46
2022/02/17 01:28:15;;;;;;;18.60;4.65;;;;;;;11.73;90.78;99258.72;4997974;28;20049;-45
2022/02/17 01:30:47;;;;;;;15.55;4.65;;;;;;;11.74;91.30;99267.75;5013532;28;20412;-46
2022/02/17 01:33:17;;;;;;;16.92;4.65;;;;;;;11.73;89.96;99271.56;5014254;28;20070;-46
2022/02/17 01:36:06;;;;;;;17.35;4.63;;;;;;;11.71;87.74;99263.72;5001524;28;20097;-46
2022/02/17 01:38:41;;;;;;;17.30;4.57;;;;;;;11.71;87.55;99271.09;4994635;28;20047;-46
2022/02/17 01:41:09;;;;;;;12.98;3.97;;;;;;;11.67;89.31;99303.66;4994180;28;20113;-46
2022/02/17 01:43:38;;;;;;;16.17;4.63;;;;;;;11.73;87.94;99302.38;4994452;28;20576;-47
2022/02/17 01:46:06;;;;;;;18.45;5.35;;;;;;;11.65;86.42;99335.09;4994421;28;20042;-44
2022/02/17 01:48:34;;;;;;;18.55;5.07;;;;;;;11.61;86.88;99315.00;4994555;28;20137;-44
2022/02/17 01:51:02;;;;;;;19.65;4.93;;;;;;;11.61;86.80;99282.28;4995680;28;20500;-44
2022/02/17 01:53:30;;;;;;;16.08;4.55;;;;;;;11.58;84.54;99349.16;4995541;28;20047;-45
2022/02/17 01:55:59;;;;;;;18.27;4.88;;;;;;;11.56;82.91;99340.50;4994361;28;20049;-46
2022/02/17 01:58:31;;;;;;;20.40;5.53;;;;;;;11.55;81.34;99340.81;4978222;28;20047;-45
2022/02/17 02:01:07;;;;;;;20.58;5.05;;;;;;;11.54;81.90;99336.47;4987231;28;20042;-44
2022/02/17 02:03:35;;;;;;;21.60;5.38;;;;;;;11.55;80.88;99343.53;4994129;28;20042;-44
2022/02/17 02:06:22;;;;;;;17.77;4.80;;;;;;;11.48;79.97;99336.59;4995197;28;20093;-43
2022/02/17 02:09:26;;;;;;;17.88;5.05;;;;;;;11.40;77.75;99388.34;4993996;28;20056;-46
2022/02/17 02:12:04;;;;;;;18.52;5.00;;;;;;;11.42;78.53;99345.19;4989833;28;20051;-45
2022/02/17 02:14:32;;;;;;;22.58;5.22;;;;;;;11.37;79.40;99342.59;4993782;28;20075;-47
2022/02/17 02:17:01;;;;;;;17.60;4.47;;;;;;;11.36;79.18;99352.72;4993569;28;20126;-46
2022/02/17 02:19:28;;;;;;;23.48;5.55;;;;;;;11.28;80.31;99372.50;5010747;28;20103;-46
2022/02/17 02:21:58;;;;;;;20.30;5.43;;;;;;;11.23;80.90;99369.91;5013259;28;20049;-44
2022/02/17 02:24:26;;;;;;;24.35;5.82;;;;;;;11.20;80.18;99378.72;5013488;28;20081;-45
2022/02/17 02:26:54;;;;;;;26.05;5.88;;;;;;;11.15;79.10;99382.34;5009293;28;20042;-43
2022/02/17 02:29:26;;;;;;;19.55;5.47;;;;;;;11.14;78.84;99427.09;4992838;28;20055;-44
2022/02/17 02:31:54;;;;;;;23.52;6.47;;;;;;;11.09;79.14;99411.66;4994917;28;20489;-44
2022/02/17 02:34:22;;;;;;;25.08;6.28;;;;;;;11.09;79.05;99416.31;4993346;28;20042;-41
2022/02/17 02:36:52;;;;;;;26.15;6.80;;;;;;;11.01;76.81;99426.00;4993907;28;20105;-44
2022/02/17 02:39:20;;;;;;;21.25;6.45;;;;;;;11.04;76.43;99432.75;4993556;28;20489;-45
2022/02/17 02:41:53;;;;;;;21.05;6.10;;;;;;;10.99;75.50;99424.69;5003557;28;20042;-43
2022/02/17 02:44:20;;;;;;;26.00;7.30;;;;;;;11.00;75.31;99427.13;4993559;28;20074;-44
2022/02/17 02:46:54;;;;;;;22.13;5.22;;;;;;;10.99;76.62;99441.88;4993582;28;20386;-45
2022/02/17 02:49:22;;;;;;;20.15;6.28;;;;;;;10.99;74.62;99474.56;4996776;28;20050;-45
2022/02/17 02:51:50;;;;;;;22.60;6.30;;;;;;;10.95;74.78;99454.47;4993255;28;20042;-41
2022/02/17 02:54:33;;;;;;;24.85;6.13;;;;;;;10.93;74.70;99462.16;4993376;28;20438;-44
2022/02/17 02:57:01;;;;;;;19.27;6.07;;;;;;;10.86;73.57;99486.28;4993327;28;20034;-43
2022/02/17 02:59:30;;;;;;;23.90;6.25;;;;;;;10.83;74.21;99489.59;4993036;28;20097;-42
2022/02/17 03:02:00;;;;;;;35.95;6.95;;;;;;;10.85;73.04;99490.13;4993465;28;20405;-44
2022/02/17 03:04:30;;;;;;;23.35;7.00;;;;;;;10.82;73.80;99496.97;4993190;28;20046;-45
2022/02/17 03:07:06;;;;;;;22.55;6.30;;;;;;;10.78;74.05;99506.06;4998298;28;20050;-46
2022/02/17 03:09:39;;;;;;;21.42;6.10;;;;;;;10.75;74.04;99512.09;4992561;28;20042;-44
2022/02/17 03:12:07;;;;;;;24.83;6.57;;;;;;;10.72;74.25;99512.69;4993170;28;20043;-45
2022/02/17 03:14:35;;;;;;;19.80;6.03;;;;;;;10.69;72.33;99507.88;4993167;28;20093;-44
2022/02/17 03:17:03;;;;;;;18.70;5.68;;;;;;;10.62;72.18;99536.28;4992655;28;20053;-43
2022/02/17 03:19:31;;;;;;;19.48;5.25;;;;;;;10.60;72.01;99533.06;5008899;28;20052;-45
2022/02/17 03:21:59;;;;;;;21.13;5.43;;;;;;;10.57;72.37;99533.66;5012020;28;20484;-45
2022/02/17 03:24:28;;;;;;;12.10;4.05;;;;;;;10.61;70.91;99523.78;5012255;28;20046;-45
2022/02/17 03:26:57;;;;;;;19.40;5.63;;;;;;;10.60;69.84;99559.50;5013498;28;20492;-43
2022/02/17 03:29:24;;;;;;;20.02;5.78;;;;;;;10.53;70.37;99587.09;5001045;28;20452;-44
2022/02/17 03:31:52;;;;;;;21.55;6.00;;;;;;;10.54;70.81;99572.41;4992604;28;20046;-43
2022/02/17 03:34:24;;;;;;;20.17;6.03;;;;;;;10.52;70.67;99576.53;4992567;28;20493;-45
2022/02/17 03:36:53;;;;;;;18.95;5.35;;;;;;;10.51;71.68;99583.06;4992581;28;20126;-45
2022/02/17 03:39:22;;;;;;;19.15;5.70;;;;;;;10.50;73.09;99563.19;4977230;28;20046;-43
2022/02/17 03:41:59;;;;;;;;;;;;;;;10.48;73.42;99600.81;4994113;28;20049;-43
2022/02/17 03:44:30;;;;;;;24.67;6.40;;;;;;;10.48;73.04;99594.56;4992534;28;19922;-45
2022/02/17 03:47:17;;;;;;;24.42;7.05;;;;;;;10.48;74.46;99608.97;5008805;28;20105;-44
2022/02/17 03:49:57;;;;;;;26.55;7.18;;;;;;;10.50;74.16;99630.47;4993758;28;20078;-44
2022/02/17 03:52:32;;;;;;;30.85;8.00;;;;;;;10.48;74.38;99617.16;4993646;28;20057;-41
2022/02/17 03:55:10;;;;;;;30.00;7.07;;;;;;;10.47;73.23;99610.09;4992448;28;20050;-41
2022/02/17 03:57:45;;;;;;;25.42;7.43;;;;;;;10.45;72.95;99623.19;4992287;28;20054;-41
2022/02/17 04:00:18;;;;;;;26.63;6.53;;;;;;;10.49;73.40;99613.34;4983995;28;20045;-45
2022/02/17 04:02:46;;;;;;;19.50;5.85;;;;;;;10.51;73.78;99645.69;4993990;28;20504;-42
2022/02/17 04:05:19;;;;;;;21.35;5.97;;;;;;;10.53;73.10;99624.44;4992411;28;20043;-44
2022/02/17 04:07:47;;;;;;;29.50;7.30;;;;;;;10.49;72.69;99628.88;4976592;28;20101;-44
2022/02/17 04:10:33;;;;;;;;;;;;;;;10.42;72.37;99631.97;4993373;28;20063;-43
2022/02/17 04:13:05;;;;;;;22.85;6.00;;;;;;;10.47;72.80;99637.31;4994857;28;19957;-45
2022/02/17 04:15:53;;;;;;;21.45;6.75;;;;;;;10.43;73.00;99647.19;4993131;28;20061;-45
2022/02/17 04:18:34;;;;;;;21.33;5.80;;;;;;;10.38;72.92;99656.25;4992077;28;20054;-45
2022/02/17 04:21:12;;;;;;;27.77;7.15;;;;;;;10.36;73.29;99660.38;4993514;28;20049;-43
2022/02/17 04:23:53;;;;;;;27.40;6.93;;;;;;;10.37;72.36;99648.38;4993426;28;20453;-45
2022/02/17 04:26:25;;;;;;;26.90;7.03;;;;;;;10.39;72.11;99665.22;5008422;28;20050;-43
2022/02/17 04:29:08;;;;;;;27.10;7.10;;;;;;;10.33;71.92;99674.56;4991862;28;20485;-45
2022/02/17 04:31:47;;;;;;;27.48;7.25;;;;;;;10.33;71.62;99701.81;5010315;28;20041;-44
2022/02/17 04:34:14;;;;;;;25.88;6.80;;;;;;;10.31;71.62;99709.44;5011771;28;20041;-45
2022/02/17 04:36:44;;;;;;;27.35;7.50;;;;;;;10.29;71.33;99689.88;5011393;28;20493;-45
2022/02/17 04:39:12;;;;;;;24.42;6.68;;;;;;;10.31;71.61;99677.56;5005381;28;20379;-43
2022/02/17 04:44:30;;;;;;;33.05;8.93;;;;;;;10.27;72.37;99732.88;4992028;28;20046;-45
2022/02/17 04:47:00;;;;;;;30.40;7.95;;;;;;;10.26;72.56;99723.09;4992191;28;20129;-44
2022/02/17 04:49:29;;;;;;;30.90;7.88;;;;;;;10.24;73.33;99713.31;4992950;28;20045;-44
2022/02/17 04:51:59;;;;;;;30.08;8.07;;;;;;;10.23;73.90;99735.38;4992107;28;20089;-43
2022/02/17 04:54:28;;;;;;;32.75;8.65;;;;;;;10.23;73.82;99724.50;4995538;28;20070;-45
2022/02/17 04:56:56;;;;;;;37.70;8.65;;;;;;;10.21;75.18;99726.69;4996697;28;20042;-43
2022/02/17 04:59:29;;;;;;;37.92;8.68;;;;;;;10.19;74.84;99751.47;4996344;28;20042;-47
2022/02/17 05:01:57;;;;;;;33.17;8.73;;;;;;;10.17;75.51;99753.72;4995312;28;20054;-45
2022/02/17 05:04:45;;;;;;;32.40;8.27;;;;;;;10.12;76.23;99756.47;4995396;28;20492;-44
2022/02/17 05:07:20;;;;;;;30.50;8.40;;;;;;;10.15;76.35;99776.84;4995392;28;20053;-44
2022/02/17 05:09:48;;;;;;;33.83;8.38;;;;;;;10.13;75.03;99757.31;4996125;28;20048;-44
2022/02/17 05:12:17;;;;;;;29.10;8.55;;;;;;;10.10;75.08;99763.31;5014390;28;20042;-45
2022/02/17 05:15:03;;;;;;;;;;;;;;;10.11;75.74;99798.41;5015829;28;20053;-44
2022/02/17 05:17:35;;;;;;;33.20;9.13;;;;;;;10.07;76.06;99786.47;5014448;28;19925;-43
2022/02/17 05:20:03;;;;;;;35.83;9.50;;;;;;;10.04;75.74;99789.78;5015781;28;20046;-43
2022/02/17 05:22:42;;;;;;;30.20;8.32;;;;;;;10.07;76.03;99781.03;5012980;28;20121;-45
2022/02/17 05:25:19;;;;;;;35.38;9.00;;;;;;;10.08;75.47;99793.56;5014406;28;20404;-44
2022/02/17 05:28:01;;;;;;;31.60;8.90;;;;;;;10.04;75.37;99814.28;5014281;28;20057;-45
2022/02/17 05:30:42;;;;;;;31.48;8.55;;;;;;;9.99;75.89;99806.16;5014245;28;20048;-45
2022/02/17 05:33:33;;;;;;;36.00;9.25;;;;;;;9.97;75.41;99808.38;5032440;28;20053;-43
2022/02/17 05:36:36;;;;;;;37.47;9.30;;;;;;;9.97;75.28;99824.69;5012888;28;20050;-44
2022/02/17 05:39:23;;;;;;;34.90;9.27;;;;;;;9.97;75.67;99811.09;5012649;28;20050;-44
2022/02/17 05:41:52;;;;;;;29.13;8.43;;;;;;;9.95;75.44;99848.66;5000757;28;20057;-43
2022/02/17 05:44:20;;;;;;;30.00;7.95;;;;;;;9.92;75.01;99827.47;4995499;28;20078;-45
2022/02/17 05:46:48;;;;;;;32.05;8.35;;;;;;;9.87;74.89;99847.38;4995678;28;20046;-44
2022/02/17 05:49:15;;;;;;;35.80;9.52;;;;;;;9.87;74.84;99871.06;4995560;28;20038;-45
2022/02/17 05:51:43;;;;;;;28.00;8.15;;;;;;;9.88;74.05;99870.75;4996658;28;20077;-43
2022/02/17 05:54:11;;;;;;;26.85;7.97;;;;;;;9.86;73.24;99869.41;4994498;28;20046;-45
2022/02/17 05:56:42;;;;;;;35.35;8.90;;;;;;;9.84;73.63;99867.00;4995414;28;20397;-44
2022/02/17 05:59:09;;;;;;;31.20;8.90;;;;;;;9.82;74.05;99863.75;4995327;28;20097;-43
2022/02/17 06:01:37;;;;;;;33.53;8.85;;;;;;;9.81;73.83;99868.41;5008259;28;20048;-45
2022/02/17 06:04:04;;;;;;;29.83;8.68;;;;;;;9.81;74.25;99892.88;5013374;28;20052;-43
2022/02/17 06:06:36;;;;;;;33.95;8.60;;;;;;;9.85;74.26;99870.53;5014810;28;20056;-44
2022/02/17 06:09:05;;;;;;;31.33;7.93;;;;;;;9.80;73.71;99874.91;5014565;28;20046;-45
2022/02/17 06:11:33;;;;;;;27.75;7.90;;;;;;;9.81;73.31;99902.91;5004369;28;20066;-43
2022/02/17 06:14:08;;;;;;;26.60;7.95;;;;;;;9.78;72.58;99893.44;4995193;28;20528;-45
2022/02/17 06:16:36;;;;;;;27.00;7.65;;;;;;;9.78;72.00;99915.19;4994886;28;20046;-44
2022/02/17 06:19:03;;;;;;;27.02;7.82;;;;;;;9.77;72.29;99907.34;4995173;28;20069;-44
2022/02/17 06:21:31;;;;;;;32.40;8.25;;;;;;;9.71;71.78;99903.81;5009819;28;20500;-50
2022/02/17 06:23:59;;;;;;;30.73;8.35;;;;;;;9.64;71.86;99946.84;5015338;28;20176;-47
2022/02/17 06:26:26;;;;;;;31.77;8.82;;;;;;;9.60;71.98;99924.06;5014954;28;20042;-45
2022/02/17 06:28:54;;;;;;;33.97;8.85;;;;;;;9.56;72.23;99958.34;5014447;28;20419;-45
2022/02/17 06:31:21;;;;;;;33.75;8.40;;;;;;;9.55;71.60;99965.69;5012539;28;20406;-48
2022/02/17 06:33:49;;;;;;;37.95;10.82;;;;;;;9.52;71.12;99955.38;5014216;28;20038;-44
2022/02/17 06:36:17;;;;;;;38.53;7.85;;;;;;;9.52;71.41;99971.69;5014073;28;20407;-43
2022/02/17 06:38:45;;;;;;;35.05;8.48;;;;;;;9.49;71.32;99977.69;5014059;28;20177;-46
2022/02/17 06:41:17;;;;;;;34.55;8.00;;;;;;;9.48;71.10;100002.47;4998963;28;20046;-45
2022/02/17 06:43:45;;;;;;;28.88;6.93;;;;;;;9.43;70.10;99978.00;4993134;28;20085;-43
2022/02/17 06:46:13;;;;;;;32.10;7.95;;;;;;;9.43;70.41;99999.75;5005835;28;20129;-44
2022/02/17 06:48:41;;;;;;;31.40;7.68;;;;;;;9.42;70.98;100000.84;4315101;28;10000798;-42
2022/02/17 06:51:11;;;;;;;30.42;8.05;;;;;;;9.38;70.70;100004.13;4975344;28;20567;-45
2022/02/17 06:53:41;;;;;;;27.95;7.95;;;;;;;9.38;71.05;100015.00;4991239;28;20405;-41
2022/02/17 06:56:11;;;;;;;26.10;6.65;;;;;;;9.39;71.66;100032.94;4991203;28;20042;-46
2022/02/17 06:58:39;;;;;;;28.35;7.50;;;;;;;9.43;71.50;100030.50;4990849;28;20041;-45
2022/02/17 07:01:06;;;;;;;30.40;8.25;;;;;;;9.39;71.26;100038.38;4992029;28;20596;-44
2022/02/17 07:03:35;;;;;;;26.52;6.93;;;;;;;9.39;70.66;100075.63;4991459;28;20062;-45
2022/02/17 07:06:02;;;;;;;24.48;6.78;;;;;;;9.35;70.44;100047.38;4999375;28;20046;-42
2022/02/17 07:08:30;;;;;;;30.83;7.53;;;;;;;9.33;70.46;100076.72;4990797;28;20038;-44
2022/02/17 07:10:59;;;;;;;24.27;6.57;;;;;;;9.34;71.34;100045.75;4990827;28;20050;-45
2022/02/17 07:13:28;;;;;;;28.35;7.40;;;;;;;9.34;71.45;100081.91;4993104;28;20057;-45
2022/02/17 07:15:57;;;;;;;29.08;6.78;;;;;;;9.34;71.88;100071.03;4988785;28;20069;-46
2022/02/17 07:18:28;;;;;;;32.10;8.23;;;;;;;9.32;71.85;100081.38;4989317;28;20140;-45
2022/02/17 07:20:56;;;;;;;32.03;8.50;;;;;;;9.33;71.63;100065.84;4990549;28;20046;-46
2022/02/17 07:23:24;;;;;;;25.75;7.53;;;;;;;9.34;72.20;100078.38;4991517;28;20046;-43
2022/02/17 07:25:53;;;;;;;28.30;7.03;;;;;;;9.43;72.07;100086.75;4990435;28;20050;-45
2022/02/17 07:28:22;;;;;;;26.58;6.97;;;;;;;9.49;72.48;100093.81;4989805;28;20137;-45
2022/02/17 07:30:50;;;;;;;26.08;7.10;;;;;;;9.49;71.05;100091.09;4991852;28;20062;-45
2022/02/17 07:33:19;;;;;;;28.05;7.45;;;;;;;9.49;71.32;100091.09;4993953;28;20489;-46
2022/02/17 07:35:47;;;;;;;30.15;7.85;;;;;;;9.42;70.50;100124.00;4991165;28;20412;-45
2022/02/17 07:38:35;;;;;;;28.02;7.80;;;;;;;9.26;69.25;100125.97;4992443;28;20050;-44
2022/02/17 07:41:03;;;;;;;23.98;7.47;;;;;;;9.26;69.90;100136.84;5003301;28;20057;-45
2022/02/17 07:43:31;;;;;;;27.98;6.57;;;;;;;9.29;70.39;100151.81;4993548;28;20489;-46
2022/02/17 07:46:00;;;;;;;30.95;7.65;;;;;;;9.24;71.00;100144.47;4992162;28;20042;-44
2022/02/17 07:48:28;;;;;;;34.00;7.30;;;;;;;9.23;71.66;100161.84;4997270;28;20049;-44
2022/02/17 07:50:58;;;;;;;24.58;6.40;;;;;;;9.24;72.49;100179.81;5002951;28;20409;-45
2022/02/17 07:53:26;;;;;;;26.67;6.85;;;;;;;9.22;71.76;100192.03;4992982;28;20228;-43
2022/02/17 07:55:54;;;;;;;22.42;6.10;;;;;;;9.21;70.79;100183.06;4993486;28;20070;-48
2022/02/17 07:58:25;;;;;;;21.50;6.50;;;;;;;9.22;71.77;100189.31;4993225;28;20061;-46
2022/02/17 08:00:53;;;;;;;28.98;7.68;;;;;;;9.20;71.39;100186.06;4992249;28;20239;-45
2022/02/17 08:03:21;;;;;;;25.50;6.75;;;;;;;9.20;71.15;100186.88;4993477;28;20193;-45
2022/02/17 08:05:49;;;;;;;27.27;6.40;;;;;;;9.18;71.97;100192.56;4992971;28;20117;-45
2022/02/17 08:08:19;;;;;;;26.90;7.07;;;;;;;9.19;71.71;100190.69;4993602;28;20046;-44
2022/02/17 08:10:47;;;;;;;24.80;6.35;;;;;;;9.41;71.05;100198.53;4993203;28;20051;-42
2022/02/17 08:13:16;;;;;;;24.55;6.10;;;;;;;9.35;70.56;100205.84;4993188;28;20121;-44
2022/02/17 08:15:46;;;;;;;25.38;7.35;;;;;;;9.26;71.07;100217.56;4993452;28;20049;-42
2022/02/17 08:18:13;;;;;;;20.00;5.88;;;;;;;9.22;71.70;100214.59;4993076;28;20472;-47
2022/02/17 08:20:44;;;;;;;26.05;6.75;;;;;;;9.14;71.53;100228.75;4993057;28;20453;-42
2022/02/17 08:23:12;;;;;;;30.13;7.97;;;;;;;9.08;72.50;100235.25;4993590;28;20501;-47
2022/02/17 08:25:41;;;;;;;30.08;8.40;;;;;;;9.08;73.13;100240.69;4997934;28;20460;-45
2022/02/17 08:28:08;;;;;;;27.88;7.78;;;;;;;9.08;73.49;100254.28;5012873;28;20449;-43
2022/02/17 08:30:36;;;;;;;28.50;8.40;;;;;;;9.05;69.28;100254.84;5013612;28;20048;-42
2022/02/17 08:33:05;;;;;;;27.75;6.80;;;;;;;9.01;67.48;100240.97;4996798;28;20046;-43
2022/02/17 08:35:32;;;;;;;20.70;5.68;;;;;;;9.02;66.11;100267.06;4999566;28;20048;-45
2022/02/17 08:38:05;;;;;;;21.17;5.75;;;;;;;9.03;65.23;100240.69;4997487;28;20041;-46
2022/02/17 08:40:33;;;;;;;19.67;5.28;;;;;;;9.02;64.90;100249.94;4996787;28;20050;-44
2022/02/17 08:43:09;;;;;;;21.05;5.30;;;;;;;9.02;63.99;100255.34;4996499;28;20074;-44
2022/02/17 08:45:42;;;;;;;20.13;5.80;;;;;;;9.02;64.12;100268.94;4996668;28;20468;-44
2022/02/17 08:48:11;;;;;;;17.48;4.38;;;;;;;9.05;64.72;100260.28;4996637;28;20050;-43
2022/02/17 08:50:40;;;;;;;18.38;5.90;;;;;;;9.04;65.54;100254.00;4995295;28;20035;-45
2022/02/17 08:53:08;;;;;;;27.25;6.13;;;;;;;9.03;65.43;100279.56;5015434;28;20208;-46
2022/02/17 08:55:52;;;;;;;21.73;5.47;;;;;;;9.09;65.90;100277.66;5014822;28;20077;-44
2022/02/17 08:58:19;;;;;;;22.27;6.60;;;;;;;9.12;66.51;100296.16;5015967;28;20041;-45
2022/02/17 09:00:47;;;;;;;20.92;6.63;;;;;;;9.12;67.23;100309.75;5015795;28;20050;-45
2022/02/17 09:03:15;;;;;;;19.13;5.60;;;;;;;9.10;67.43;100299.13;5014382;28;20069;-43
2022/02/17 09:05:44;;;;;;;25.63;6.47;;;;;;;9.11;66.52;100318.97;5015774;28;20038;-43
2022/02/17 09:08:32;;;;;;;21.17;5.60;;;;;;;9.09;66.60;100310.25;5015800;28;20145;-46
2022/02/17 09:10:59;;;;;;;18.00;4.90;;;;;;;9.12;66.10;100309.75;5015383;28;20077;-44
2022/02/17 09:13:28;;;;;;;19.58;5.93;;;;;;;9.13;66.52;100311.34;5015555;28;20480;-44
2022/02/17 09:15:56;;;;;;;22.42;5.88;;;;;;;9.19;66.54;100321.16;5015383;28;20045;-46
2022/02/17 09:18:24;;;;;;;21.35;5.25;;;;;;;9.22;65.93;100325.25;4998363;28;20401;-41
2022/02/17 09:20:52;;;;;;;17.08;4.82;;;;;;;9.20;65.38;100325.50;5012491;28;20034;-43
2022/02/17 09:23:19;;;;;;;19.67;4.95;;;;;;;9.23;65.80;100335.81;5015288;28;20038;-43
2022/02/17 09:25:47;;;;;;;16.83;4.35;;;;;;;9.22;63.06;100342.34;5015832;28;20054;-44
2022/02/17 09:28:15;;;;;;;14.35;4.90;;;;;;;9.19;64.25;100351.06;5011280;28;20137;-44
2022/02/17 09:30:46;;;;;;;18.60;4.57;;;;;;;9.20;63.83;100349.97;4993889;28;20042;-45
2022/02/17 09:33:15;;;;;;;25.13;5.93;;;;;;;9.23;63.23;100371.16;5013320;28;20089;-42
2022/02/17 09:35:44;;;;;;;14.45;4.30;;;;;;;9.25;62.76;100365.47;5015232;28;20173;-45
2022/02/17 09:38:13;;;;;;;17.85;4.85;;;;;;;9.26;61.70;100380.66;5013213;28;20489;-46
2022/02/17 09:40:45;;;;;;;18.35;5.00;;;;;;;9.26;62.10;100391.53;4999366;28;20049;-45
2022/02/17 09:43:13;;;;;;;14.27;4.10;;;;;;;9.26;62.52;100389.66;5013912;28;20034;-44
2022/02/17 09:45:46;;;;;;;17.25;4.05;;;;;;;9.29;62.74;100397.28;5013824;28;20120;-45
2022/02/17 09:48:17;;;;;;;18.05;5.13;;;;;;;9.28;61.67;100387.47;5015056;28;20129;-46
2022/02/17 09:50:46;;;;;;;19.38;5.30;;;;;;;9.26;61.79;100402.41;4996377;28;20049;-44
2022/02/17 09:53:16;;;;;;;16.48;4.07;;;;;;;9.24;62.41;100410.88;4995488;28;20043;-43
2022/02/17 09:55:44;;;;;;;16.73;4.20;;;;;;;9.25;62.68;100423.34;4995419;28;20446;-44
2022/02/17 09:58:15;;;;;;;17.15;4.38;;;;;;;9.22;59.07;100418.47;4995273;28;20133;-43
2022/02/17 10:00:45;;;;;;;17.08;4.50;;;;;;;9.23;58.88;100424.72;4994965;28;20141;-45
2022/02/17 10:03:24;;;;;;;14.15;3.72;;;;;;;9.25;58.99;100417.09;4993665;28;20053;-43
2022/02/17 10:06:14;;;;;;;13.80;4.07;;;;;;;9.27;59.61;100420.38;4994909;28;20042;-43
2022/02/17 10:08:43;;;;;;;15.25;4.07;;;;;;;9.29;59.88;100413.59;4993653;28;20513;-43
2022/02/17 10:11:28;;;;;;;16.48;4.18;;;;;;;9.33;59.91;100425.56;4977262;28;20078;-44
2022/02/17 10:14:16;;;;;;;15.50;4.25;;;;;;;9.32;59.22;100448.38;4994667;28;20073;-45
2022/02/17 10:17:04;;;;;;;14.65;5.05;;;;;;;9.27;58.78;100464.69;4994810;28;20393;-43
2022/02/17 10:19:47;;;;;;;18.58;5.13;;;;;;;9.28;60.00;100481.81;4994641;28;20062;-42
2022/02/17 10:22:19;;;;;;;16.13;4.15;;;;;;;9.30;60.59;100466.84;4993426;28;20130;-44
2022/02/17 10:24:50;;;;;;;18.13;5.10;;;;;;;9.34;60.10;100476.13;4994823;28;20054;-43
2022/02/17 10:27:22;;;;;;;19.10;4.10;;;;;;;9.32;60.07;100469.31;4994492;28;20101;-44
2022/02/17 10:30:01;;;;;;;18.05;4.25;;;;;;;9.34;60.73;100483.47;4994155;28;20050;-44
2022/02/17 10:32:31;;;;;;;14.40;4.65;;;;;;;9.38;60.85;100493.53;4994527;28;20109;-46
2022/02/17 10:35:13;;;;;;;15.13;4.45;;;;;;;9.43;60.96;100471.00;4993132;28;20057;-43
2022/02/17 10:37:46;;;;;;;17.95;5.10;;;;;;;9.43;60.79;100471.00;4995246;28;20054;-45
2022/02/17 10:40:15;;;;;;;19.20;4.90;;;;;;;9.44;60.52;100485.41;5011416;28;20048;-45
2022/02/17 10:42:43;;;;;;;14.05;4.60;;;;;;;9.45;60.38;100503.34;4993657;28;20042;-47
2022/02/17 10:45:31;;;;;;;15.38;4.78;;;;;;;9.49;61.14;100499.81;5009666;28;20125;-45
2022/02/17 10:48:18;;;;;;;19.00;4.50;;;;;;;9.51;58.83;100513.16;5000861;28;20523;-46
2022/02/17 10:51:02;;;;;;;15.27;4.72;;;;;;;9.46;58.83;100511.22;4993330;28;20393;-44
2022/02/17 10:53:31;;;;;;;16.20;4.15;;;;;;;9.45;60.39;100519.66;4994164;28;20042;-45
2022/02/17 10:56:01;;;;;;;14.07;3.80;;;;;;;9.49;59.61;100531.63;4984896;28;20474;-44
2022/02/17 10:58:38;;;;;;;17.20;4.18;;;;;;;9.44;58.73;100550.66;4994036;28;20050;-44
2022/02/17 11:01:08;;;;;;;18.02;4.43;;;;;;;9.42;59.29;100545.47;5002566;28;20049;-44
2022/02/17 11:03:37;;;;;;;16.48;4.75;;;;;;;9.42;59.16;100536.50;5003583;28;20444;-46
2022/02/17 11:06:13;;;;;;;14.98;3.92;;;;;;;9.42;59.67;100555.53;5004502;28;20049;-44
2022/02/17 11:08:42;;;;;;;16.70;3.95;;;;;;;9.43;60.00;100549.00;4994927;28;20044;-44
2022/02/17 11:11:13;;;;;;;12.02;4.40;;;;;;;9.44;59.34;100550.66;4992447;28;20049;-44
2022/02/17 11:13:50;;;;;;;14.57;4.00;;;;;;;9.45;60.27;100563.16;4993409;28;20053;-45
2022/02/17 11:16:23;;;;;;;19.40;5.07;;;;;;;9.43;58.87;100565.31;4992833;28;20054;-43
2022/02/17 11:18:58;;;;;;;14.07;3.60;;;;;;;9.39;59.14;100560.44;4993583;28;20038;-46
2022/02/17 11:21:28;;;;;;;11.90;3.40;;;;;;;9.42;58.32;100566.41;4992300;28;20057;-44
2022/02/17 11:24:04;;;;;;;14.40;3.85;;;;;;;9.46;58.36;100567.53;4555612;28;10001473;-46
2022/02/17 11:26:35;;;;;;;10.63;3.60;;;;;;;9.50;58.59;100585.78;5004146;28;20168;-42
2022/02/17 11:29:23;;;;;;;12.43;4.07;;;;;;;9.57;58.87;100580.06;5010239;28;20058;-45
2022/02/17 11:31:59;;;;;;;16.48;4.30;;;;;;;9.61;58.49;100575.72;5010107;28;20546;-44
2022/02/17 11:34:36;;;;;;;17.13;4.47;;;;;;;9.66;59.16;100559.41;4992621;28;20108;-43
2022/02/17 11:37:22;;;;;;;;;;;;;;;9.70;59.96;100576.84;4991985;28;20493;-44
2022/02/17 11:40:05;;;;;;;13.95;4.00;;;;;;;9.74;59.62;100567.06;4991848;28;20562;-45
2022/02/17 11:42:37;;;;;;;15.57;4.05;;;;;;;9.71;57.77;100583.91;5005718;28;20401;-42
2022/02/17 11:45:09;;;;;;;17.02;4.47;;;;;;;9.70;57.22;100586.91;4973358;28;20053;-45
2022/02/17 11:48:01;;;;;;;14.23;4.68;;;;;;;9.71;58.10;100605.69;4990607;28;20046;-45
2022/02/17 11:50:31;;;;;;;17.02;4.50;;;;;;;9.64;57.10;100577.91;4990202;28;20035;-45